< < Back
Terminal Aerodrome Forecast


Current Version              Previous Versions:   1  2  3  4  5  6  7  8  9  

Terminal Aerodrome Forecast

644
FTUS44 KBMX 221100
TAFTCL
TAF
KTCL 221124Z 2212/2312 02005KT P6SM SKC
     FM221500 02008KT P6SM SKC
     FM230000 02003KT P6SM SKC=



Latest METAR

025
SAUS70 KWBC 222200 RRF
MTRTCL
METAR KTCL 222153Z 03010KT 10SM CLR 21/04 A3011 RMK AO2 SLP194
T02110044


USA.gov is the U.S. government's official web portal to all federal, state and local government web resources and services.